Time;durP1;ratioP1;P1;durP2;ratioP2;P2;SDS_P1;SDS_P2;PMS_P1;PMS_P2;Temp;Humidity;BMP_temperature;BMP_pressure;BME280_temperature;BME280_humidity;BME280_pressure;Samples;Min_cycle;Max_cycle;Signal;HPM_P1;HPM_P2
2022/08/06 00:00:22;;;;;;;3.80;0.95;;;11.70;99.90;;;;;;5035226;28;20179;-69
2022/08/06 00:02:48;;;;;;;2.53;1.00;;;11.70;99.90;;;;;;5018828;28;20057;-69
2022/08/06 00:05:14;;;;;;;1.70;1.00;;;11.70;99.90;;;;;;5034519;28;20473;-69
2022/08/06 00:07:40;;;;;;;2.13;1.00;;;11.60;99.90;;;;;;5035356;28;20045;-69
2022/08/06 00:10:06;;;;;;;2.35;1.35;;;11.50;99.90;;;;;;5035355;28;20045;-69
2022/08/06 00:12:34;;;;;;;2.25;1.00;;;11.50;99.90;;;;;;5035330;28;20132;-69
2022/08/06 00:15:01;;;;;;;1.60;1.00;;;11.30;99.90;;;;;;5035314;28;20136;-69
2022/08/06 00:17:26;;;;;;;1.42;0.90;;;11.20;99.90;;;;;;5035210;28;20049;-69
2022/08/06 00:19:52;;;;;;;2.83;1.30;;;11.20;99.90;;;;;;5035167;28;20052;-68
2022/08/06 00:22:17;;;;;;;3.75;1.10;;;11.20;99.90;;;;;;5035118;28;20364;-69
2022/08/06 00:24:43;;;;;;;1.90;1.00;;;11.10;99.90;;;;;;5017437;28;20368;-69
2022/08/06 00:27:09;;;;;;;1.77;1.10;;;11.10;99.90;;;;;;5017088;28;20068;-69
2022/08/06 00:29:34;;;;;;;3.10;1.30;;;11.00;99.90;;;;;;5034999;28;20099;-69
2022/08/06 00:32:00;;;;;;;2.58;1.15;;;11.00;99.90;;;;;;5034894;28;20397;-69
2022/08/06 00:34:26;;;;;;;2.20;1.20;;;11.00;99.90;;;;;;5034852;28;20100;-69
2022/08/06 00:36:51;;;;;;;3.28;1.08;;;11.00;99.90;;;;;;5035121;28;20045;-68
2022/08/06 00:39:17;;;;;;;1.80;1.30;;;11.00;99.90;;;;;;5035260;28;20049;-69
2022/08/06 00:41:43;;;;;;;2.88;1.30;;;11.00;99.90;;;;;;5034742;28;20048;-69
2022/08/06 00:44:09;;;;;;;2.03;1.20;;;11.00;99.90;;;;;;5034648;28;20050;-68
2022/08/06 00:46:35;;;;;;;2.70;1.30;;;11.00;99.90;;;;;;5034305;28;20057;-69
2022/08/06 00:49:01;;;;;;;2.38;1.17;;;11.10;99.90;;;;;;5034609;28;20049;-69
2022/08/06 00:51:27;;;;;;;2.40;1.13;;;10.90;99.90;;;;;;5034534;28;20049;-68
2022/08/06 00:53:53;;;;;;;4.07;1.55;;;10.90;99.90;;;;;;5017134;28;20071;-69
2022/08/06 00:56:19;;;;;;;2.97;1.38;;;10.80;99.90;;;;;;5035015;28;20072;-69
2022/08/06 00:58:45;;;;;;;3.33;1.42;;;10.70;99.90;;;;;;5034341;28;20095;-69
2022/08/06 01:01:11;;;;;;;2.13;1.40;;;10.60;99.90;;;;;;5034033;28;20046;-69
2022/08/06 01:03:37;;;;;;;2.50;1.23;;;10.50;99.90;;;;;;5034350;28;20079;-68
2022/08/06 01:06:03;;;;;;;3.78;1.33;;;10.40;99.90;;;;;;5034344;28;20116;-68
2022/08/06 01:08:29;;;;;;;2.10;1.20;;;10.40;99.90;;;;;;5034227;28;20062;-69
2022/08/06 01:10:54;;;;;;;4.50;1.45;;;10.40;99.90;;;;;;5034977;28;20045;-69
2022/08/06 01:13:20;;;;;;;2.25;1.20;;;10.40;99.90;;;;;;5034129;28;20470;-68
2022/08/06 01:15:55;;;;;;;3.10;1.50;;;10.30;99.90;;;;;;5034537;28;20443;-69
2022/08/06 01:18:28;;;;;;;2.00;1.30;;;10.30;99.90;;;;;;5034555;28;20439;-68
2022/08/06 01:21:17;;;;;;;2.90;1.55;;;10.30;99.90;;;;;;5034599;28;20356;-68
2022/08/06 01:24:10;;;;;;;3.15;1.50;;;10.30;99.90;;;;;;5034015;28;20128;-69
2022/08/06 01:26:47;;;;;;;2.47;1.30;;;10.30;99.90;;;;;;5016624;28;20085;-68
2022/08/06 01:29:27;;;;;;;2.40;1.42;;;10.30;99.90;;;;;;5033932;28;20091;-69
2022/08/06 01:32:04;;;;;;;3.45;1.70;;;10.30;99.90;;;;;;5033839;28;20091;-68
2022/08/06 01:34:44;;;;;;;5.45;2.00;;;10.30;99.90;;;;;;5034121;28;20226;-68
2022/08/06 01:37:31;;;;;;;4.07;1.73;;;10.30;99.90;;;;;;5034020;28;20466;-68
2022/08/06 01:40:03;;;;;;;3.13;1.70;;;10.30;99.90;;;;;;5033911;28;20049;-68
2022/08/06 01:42:30;;;;;;;3.10;1.83;;;10.70;99.90;;;;;;5033725;28;20045;-68
2022/08/06 01:45:03;;;;;;;4.10;2.53;;;10.30;99.90;;;;;;5016143;28;20486;-68
2022/08/06 01:47:34;;;;;;;3.70;1.88;;;10.30;99.90;;;;;;5016509;28;20056;-68
2022/08/06 01:50:03;;;;;;;3.97;2.00;;;10.30;99.90;;;;;;5034103;28;20379;-69
2022/08/06 01:52:49;;;;;;;4.22;2.00;;;10.30;99.90;;;;;;5033525;28;20085;-69
2022/08/06 01:55:18;;;;;;;2.55;1.80;;;10.40;99.90;;;;;;5032447;28;20055;-68
2022/08/06 01:57:49;;;;;;;3.13;1.90;;;10.30;99.90;;;;;;5033618;28;20397;-68
2022/08/06 02:00:17;;;;;;;5.22;2.45;;;10.20;99.90;;;;;;5033660;28;20122;-68
2022/08/06 02:02:44;;;;;;;2.70;1.73;;;10.10;99.90;;;;;;5034316;28;20076;-68
2022/08/06 02:05:11;;;;;;;2.78;1.80;;;10.00;99.90;;;;;;5033355;28;20050;-68
2022/08/06 02:07:40;;;;;;;3.03;1.80;;;10.00;99.90;;;;;;5033315;28;20052;-68
2022/08/06 02:10:08;;;;;;;2.25;1.55;;;9.90;99.90;;;;;;5033326;28;20132;-68
2022/08/06 02:12:35;;;;;;;2.72;1.73;;;9.90;99.90;;;;;;5033782;28;20425;-69
2022/08/06 02:15:26;;;;;;;2.45;1.75;;;10.00;99.90;;;;;;5033184;28;20041;-69
2022/08/06 02:17:56;;;;;;;4.05;2.05;;;10.00;99.90;;;;;;5033940;28;20057;-69
2022/08/06 02:20:28;;;;;;;3.05;1.80;;;9.90;99.90;;;;;;5033111;28;20045;-68
2022/08/06 02:22:56;;;;;;;2.97;1.73;;;10.00;99.90;;;;;;5033136;28;20045;-69
2022/08/06 02:25:23;;;;;;;3.13;1.77;;;10.10;99.90;;;;;;5033164;28;20057;-68
2022/08/06 02:27:51;;;;;;;3.80;1.85;;;10.10;99.90;;;;;;5033418;28;20473;-68
2022/08/06 02:30:17;;;;;;;4.40;1.92;;;10.00;99.90;;;;;;5037324;28;20045;-68
2022/08/06 02:32:43;;;;;;;4.07;1.80;;;10.00;99.90;;;;;;5037171;28;20049;-68
2022/08/06 02:35:10;;;;;;;4.22;2.28;;;9.90;99.90;;;;;;5037175;28;20049;-68
2022/08/06 02:37:51;;;;;;;3.00;1.85;;;10.00;99.90;;;;;;5037202;28;20453;-68
2022/08/06 02:40:47;;;;;;;4.07;2.30;;;9.80;99.90;;;;;;5037387;28;20422;-68
2022/08/06 02:43:22;;;;;;;3.33;2.25;;;9.70;99.90;;;;;;5037788;28;20495;-68
2022/08/06 02:45:54;;;;;;;3.78;2.60;;;9.60;99.90;;;;;;5019556;28;20548;-68
2022/08/06 02:48:52;;;;;;;2.85;2.25;;;9.60;99.90;;;;;;5037425;28;20045;-68
2022/08/06 02:51:25;;;;;;;3.67;2.47;;;9.60;99.90;;;;;;5037691;28;20397;-68
2022/08/06 02:54:13;;;;;;;3.20;2.20;;;10.00;99.90;;;;;;5037390;28;20343;-69
2022/08/06 02:56:44;;;;;;;3.88;2.10;;;9.60;99.90;;;;;;5037053;28;20559;-68
2022/08/06 02:59:11;;;;;;;3.90;2.45;;;9.60;99.90;;;;;;5037501;28;20045;-68
2022/08/06 03:01:41;;;;;;;3.33;2.42;;;9.60;99.90;;;;;;5036600;28;20053;-68
2022/08/06 03:04:08;;;;;;;4.60;2.40;;;9.60;99.90;;;;;;5036640;28;20127;-68
2022/08/06 03:06:36;;;;;;;5.53;2.55;;;9.60;99.90;;;;;;5036549;28;20041;-68
2022/08/06 03:09:05;;;;;;;2.92;1.95;;;9.60;99.90;;;;;;5036532;28;20089;-68
2022/08/06 03:11:34;;;;;;;4.13;2.30;;;9.60;99.90;;;;;;5035472;28;20072;-68
2022/08/06 03:14:05;;;;;;;4.72;2.30;;;9.60;99.90;;;;;;5036483;28;20076;-68
2022/08/06 03:16:35;;;;;;;3.47;1.90;;;9.60;99.90;;;;;;5037207;28;20447;-68
2022/08/06 03:19:01;;;;;;;3.92;2.13;;;9.60;99.90;;;;;;5036289;28;20053;-68
2022/08/06 03:21:29;;;;;;;3.35;2.05;;;9.60;99.90;;;;;;5036821;28;20088;-68
2022/08/06 03:23:58;;;;;;;2.75;2.22;;;9.60;99.90;;;;;;5036099;28;20060;-68
2022/08/06 03:26:26;;;;;;;4.25;2.30;;;9.60;99.90;;;;;;5036455;28;20080;-69
2022/08/06 03:28:54;;;;;;;3.05;2.10;;;9.50;99.90;;;;;;5035967;28;20157;-69
2022/08/06 03:31:22;;;;;;;3.38;1.92;;;9.50;99.90;;;;;;5036335;28;20056;-69
2022/08/06 03:33:49;;;;;;;3.25;2.05;;;9.50;99.90;;;;;;5035748;28;20049;-69
2022/08/06 03:36:15;;;;;;;2.83;1.77;;;9.40;99.90;;;;;;5036061;28;20498;-68
2022/08/06 03:38:46;;;;;;;2.90;2.25;;;9.40;99.90;;;;;;5035918;28;20188;-68
2022/08/06 03:41:13;;;;;;;3.80;2.13;;;9.60;99.90;;;;;;5034625;28;20050;-68
2022/08/06 03:43:39;;;;;;;2.95;2.05;;;9.50;99.90;;;;;;5035906;28;20045;-68
2022/08/06 03:46:07;;;;;;;4.47;2.00;;;9.40;99.90;;;;;;5035896;28;20058;-69
2022/08/06 03:48:38;;;;;;;3.58;2.08;;;9.80;99.90;;;;;;5035865;28;20100;-68
2022/08/06 03:51:16;;;;;;;3.85;2.15;;;10.00;99.90;;;;;;5036338;28;20041;-69
2022/08/06 03:53:44;;;;;;;2.90;2.15;;;9.40;99.90;;;;;;5036244;28;20132;-69
2022/08/06 03:56:16;;;;;;;3.53;1.90;;;9.40;99.90;;;;;;5017721;28;20049;-69
2022/08/06 03:58:44;;;;;;;3.28;2.20;;;9.40;99.90;;;;;;5035322;28;20091;-69
2022/08/06 04:01:16;;;;;;;4.22;2.10;;;9.50;99.90;;;;;;5035125;28;20387;-69
2022/08/06 04:03:45;;;;;;;2.50;2.00;;;9.50;99.90;;;;;;5018248;28;20390;-69
2022/08/06 04:06:11;;;;;;;2.85;1.80;;;9.50;99.90;;;;;;5035872;28;20057;-68
2022/08/06 04:08:40;;;;;;;2.80;1.90;;;9.50;99.90;;;;;;5035072;28;20397;-69
2022/08/06 04:11:07;;;;;;;3.05;2.28;;;9.50;99.90;;;;;;5035893;28;20049;-69
2022/08/06 04:13:33;;;;;;;2.17;1.70;;;9.40;99.90;;;;;;5035292;28;20051;-69
2022/08/06 04:16:00;;;;;;;2.10;1.65;;;9.40;99.90;;;;;;5035290;28;20132;-69
2022/08/06 04:18:30;;;;;;;2.85;1.75;;;9.40;99.90;;;;;;5035265;28;20045;-69
2022/08/06 04:21:02;;;;;;;2.25;1.65;;;9.50;99.90;;;;;;5035148;28;20103;-69
2022/08/06 04:23:27;;;;;;;2.88;1.98;;;9.30;99.90;;;;;;5035141;28;20049;-69
2022/08/06 04:26:01;;;;;;;2.67;1.90;;;9.30;99.90;;;;;;5035122;28;20378;-70
2022/08/06 04:28:28;;;;;;;2.53;1.85;;;9.20;99.90;;;;;;5035473;28;20056;-68
2022/08/06 04:30:56;;;;;;;2.90;1.80;;;9.20;99.90;;;;;;5034951;28;20063;-68
2022/08/06 04:33:25;;;;;;;3.90;1.90;;;9.30;99.90;;;;;;5017281;28;20045;-68
2022/08/06 04:35:52;;;;;;;2.80;1.88;;;9.30;99.90;;;;;;5034871;28;20056;-68
2022/08/06 04:38:22;;;;;;;2.63;2.20;;;9.40;99.90;;;;;;5035291;28;20045;-68
2022/08/06 04:40:48;;;;;;;3.47;2.30;;;9.40;99.90;;;;;;5035352;28;20128;-68
2022/08/06 04:43:14;;;;;;;3.15;2.08;;;9.30;99.90;;;;;;5034706;28;20049;-68
2022/08/06 04:45:42;;;;;;;3.65;2.13;;;9.30;99.90;;;;;;5034383;28;20049;-68
2022/08/06 04:48:11;;;;;;;2.70;2.08;;;9.30;99.90;;;;;;5017195;28;20053;-68
2022/08/06 04:50:38;;;;;;;3.67;2.50;;;9.30;99.90;;;;;;5034536;28;20128;-68
2022/08/06 04:53:08;;;;;;;2.85;2.38;;;9.30;99.90;;;;;;5034411;28;20061;-68
2022/08/06 04:55:34;;;;;;;4.50;2.65;;;9.70;99.90;;;;;;5034565;28;20132;-69
2022/08/06 04:58:02;;;;;;;3.47;2.42;;;9.60;99.90;;;;;;5034968;28;20057;-69
2022/08/06 05:00:28;;;;;;;3.95;2.38;;;9.80;99.90;;;;;;5034711;28;20045;-69
2022/08/06 05:02:54;;;;;;;3.80;2.13;;;9.90;99.90;;;;;;5034332;28;20041;-69
2022/08/06 05:05:21;;;;;;;3.75;2.13;;;10.00;99.90;;;;;;5016816;28;20049;-69
2022/08/06 05:07:49;;;;;;;2.80;2.22;;;10.20;99.90;;;;;;5035150;28;20052;-70
2022/08/06 05:10:14;;;;;;;2.65;2.05;;;10.30;99.90;;;;;;5034252;28;20509;-69
2022/08/06 05:12:48;;;;;;;2.30;1.90;;;10.40;99.90;;;;;;5034174;28;20073;-69
2022/08/06 05:15:29;;;;;;;2.83;2.00;;;10.50;99.90;;;;;;5034985;28;20120;-69
2022/08/06 05:18:12;;;;;;;2.65;1.73;;;10.70;99.90;;;;;;5016794;28;20406;-69
2022/08/06 05:20:40;;;;;;;3.00;1.90;;;10.90;99.90;;;;;;5034135;28;20049;-69
2022/08/06 05:23:15;;;;;;;2.83;2.28;;;11.00;99.90;;;;;;5034065;28;20041;-69
2022/08/06 05:25:41;;;;;;;2.55;1.85;;;11.20;99.90;;;;;;5034228;28;20060;-70
2022/08/06 05:28:07;;;;;;;2.35;1.70;;;11.30;99.90;;;;;;5033882;28;20062;-69
2022/08/06 05:30:33;;;;;;;3.28;2.05;;;11.50;99.90;;;;;;5033833;28;20045;-70
2022/08/06 05:32:59;;;;;;;3.28;1.60;;;11.60;99.90;;;;;;5033426;28;20053;-70
2022/08/06 05:35:25;;;;;;;2.40;1.80;;;11.70;99.90;;;;;;5033838;28;20045;-70
2022/08/06 05:37:51;;;;;;;3.35;1.63;;;11.90;99.90;;;;;;5033792;28;20114;-70
2022/08/06 05:40:16;;;;;;;2.47;1.90;;;12.00;99.90;;;;;;5034201;28;20128;-70
2022/08/06 05:42:42;;;;;;;2.20;1.60;;;12.10;99.90;;;;;;5033705;28;20053;-70
2022/08/06 05:45:11;;;;;;;2.72;1.70;;;12.20;99.90;;;;;;5033676;28;20049;-70
2022/08/06 05:47:40;;;;;;;2.55;1.70;;;12.30;99.90;;;;;;5034094;28;20450;-70
2022/08/06 05:50:15;;;;;;;2.67;1.65;;;12.40;99.90;;;;;;5033530;28;20040;-69
2022/08/06 05:53:06;;;;;;;3.30;1.67;;;12.40;99.90;;;;;;5034069;28;20050;-70
2022/08/06 05:55:38;;;;;;;2.03;1.40;;;12.50;99.90;;;;;;5033549;28;20056;-69
2022/08/06 05:58:12;;;;;;;2.20;1.42;;;12.60;99.90;;;;;;5033484;28;20049;-69
2022/08/06 06:00:40;;;;;;;2.97;1.30;;;12.60;99.90;;;;;;5033515;28;20155;-69
2022/08/06 06:03:09;;;;;;;2.17;1.30;;;12.70;99.90;;;;;;5032401;28;20490;-69
2022/08/06 06:05:36;;;;;;;3.00;1.38;;;12.70;99.90;;;;;;5033940;28;20496;-70
2022/08/06 06:08:02;;;;;;;2.00;1.35;;;12.80;99.90;;;;;;5016146;28;20081;-69
2022/08/06 06:10:28;;;;;;;2.72;1.60;;;12.90;99.90;;;;;;5033328;28;20101;-69
2022/08/06 06:12:56;;;;;;;2.22;1.30;;;13.00;99.90;;;;;;5033214;28;20045;-69
2022/08/06 06:15:22;;;;;;;1.95;1.33;;;13.10;99.90;;;;;;5033768;28;20060;-69
2022/08/06 06:18:15;;;;;;;3.75;1.38;;;13.10;99.90;;;;;;5015796;28;20390;-69
2022/08/06 06:21:01;;;;;;;2.25;1.00;;;13.30;99.90;;;;;;5034061;28;20180;-69
2022/08/06 06:23:35;;;;;;;2.03;1.20;;;13.40;99.90;;;;;;5033200;28;20045;-70
2022/08/06 06:26:38;;;;;;;1.80;0.93;;;13.50;99.90;;;;;;5033461;28;20049;-69
2022/08/06 06:29:32;;;;;;;2.55;1.00;;;13.70;99.90;;;;;;5033552;28;20073;-69
2022/08/06 06:32:17;;;;;;;2.25;1.00;;;13.80;99.90;;;;;;5033947;28;20098;-69
2022/08/06 06:35:07;;;;;;;2.25;0.90;;;14.00;99.90;;;;;;5032998;28;20046;-69
2022/08/06 06:37:45;;;;;;;2.45;0.70;;;14.10;99.90;;;;;;5033139;28;20050;-69
2022/08/06 06:40:42;;;;;;;1.30;0.70;;;14.20;99.90;;;;;;5033640;28;20052;-69
2022/08/06 06:43:10;;;;;;;1.40;0.75;;;14.40;99.90;;;;;;5026641;28;20061;-70
2022/08/06 06:45:59;;;;;;;1.63;0.90;;;14.50;99.90;;;;;;5033019;28;20088;-69
2022/08/06 06:48:45;;;;;;;1.70;0.90;;;14.70;99.90;;;;;;5033690;28;20169;-69
2022/08/06 06:51:23;;;;;;;1.77;0.70;;;14.90;99.90;;;;;;5033544;28;20053;-69
2022/08/06 06:53:51;;;;;;;1.63;1.17;;;15.00;99.90;;;;;;5032969;28;20042;-70
2022/08/06 06:56:21;;;;;;;2.22;0.70;;;15.10;99.90;;;;;;5032855;28;20058;-69
2022/08/06 06:58:58;;;;;;;2.15;0.80;;;15.30;99.90;;;;;;5033646;28;20390;-69
2022/08/06 07:01:24;;;;;;;2.33;0.98;;;15.40;99.90;;;;;;5032746;28;20056;-70
2022/08/06 07:03:51;;;;;;;1.75;0.70;;;15.50;99.90;;;;;;5032849;28;20049;-69
2022/08/06 07:06:18;;;;;;;1.40;0.60;;;15.60;99.90;;;;;;5032787;28;20115;-63
2022/08/06 07:08:47;;;;;;;2.30;1.00;;;15.70;99.90;;;;;;5015384;28;20041;-64
2022/08/06 07:11:20;;;;;;;1.50;0.93;;;15.80;99.90;;;;;;5032753;28;20105;-64
2022/08/06 07:13:47;;;;;;;1.73;0.90;;;15.90;99.90;;;;;;5032767;28;20096;-64
2022/08/06 07:16:15;;;;;;;3.03;1.05;;;15.90;99.90;;;;;;5036342;28;20103;-64
2022/08/06 07:18:43;;;;;;;2.58;1.20;;;16.00;99.90;;;;;;5018975;28;20056;-64
2022/08/06 07:21:12;;;;;;;2.80;1.00;;;16.00;99.90;;;;;;5036098;28;20184;-64
2022/08/06 07:23:38;;;;;;;2.05;1.20;;;16.00;99.90;;;;;;5036306;28;20099;-64
2022/08/06 07:26:05;;;;;;;2.17;1.17;;;16.00;99.90;;;;;;5036101;28;20370;-64
2022/08/06 07:28:32;;;;;;;1.88;0.90;;;16.10;99.90;;;;;;5036669;28;20058;-63
2022/08/06 07:31:00;;;;;;;2.00;1.40;;;16.30;99.90;;;;;;5036287;28;20053;-64
2022/08/06 07:33:26;;;;;;;6.32;1.90;;;16.40;99.90;;;;;;5036870;28;20046;-64
2022/08/06 07:35:54;;;;;;;2.35;1.00;;;16.40;99.90;;;;;;5018905;28;20049;-64
2022/08/06 07:38:21;;;;;;;2.17;0.90;;;16.40;99.90;;;;;;5036048;28;20049;-64
2022/08/06 07:40:57;;;;;;;2.40;1.60;;;16.50;99.90;;;;;;5036143;28;20049;-64
2022/08/06 07:43:40;;;;;;;2.40;1.45;;;16.60;99.90;;;;;;5018559;28;20049;-64
2022/08/06 07:46:08;;;;;;;1.48;0.80;;;16.80;99.90;;;;;;5035965;28;20037;-64
2022/08/06 07:48:41;;;;;;;2.72;1.23;;;16.90;99.90;;;;;;5035818;28;20088;-64
2022/08/06 07:51:07;;;;;;;1.30;0.80;;;17.00;99.90;;;;;;5035813;28;20139;-64
2022/08/06 07:53:36;;;;;;;1.70;0.70;;;17.00;99.90;;;;;;5036021;28;20072;-64
2022/08/06 07:56:05;;;;;;;2.53;0.70;;;17.20;99.90;;;;;;5035756;28;20115;-64
2022/08/06 07:58:33;;;;;;;1.65;0.60;;;17.20;99.90;;;;;;5035679;28;20142;-64
2022/08/06 08:01:00;;;;;;;1.55;0.70;;;17.30;99.90;;;;;;5035689;28;20048;-64
2022/08/06 08:06:24;;;;;;;1.23;0.55;;;17.40;99.90;;;;;;5036045;28;20064;-64
2022/08/06 08:08:59;;;;;;;1.45;0.52;;;17.50;99.90;;;;;;5035677;28;20041;-64
2022/08/06 08:11:25;;;;;;;2.17;0.60;;;17.60;99.90;;;;;;5035215;28;20386;-64
2022/08/06 08:13:54;;;;;;;1.42;0.40;;;17.70;99.90;;;;;;5035275;28;20272;-64
2022/08/06 08:16:20;;;;;;;1.65;0.45;;;17.80;99.90;;;;;;5035276;28;20128;-65
2022/08/06 08:18:47;;;;;;;1.40;0.50;;;17.90;99.90;;;;;;5017483;28;20437;-65
2022/08/06 08:21:14;;;;;;;1.15;0.50;;;18.00;99.90;;;;;;5035662;28;20042;-64
2022/08/06 08:23:41;;;;;;;1.20;0.50;;;18.10;99.90;;;;;;5035089;28;20474;-64
2022/08/06 08:26:07;;;;;;;1.20;0.40;;;18.10;99.90;;;;;;5034190;28;20076;-64
2022/08/06 08:28:33;;;;;;;1.00;0.60;;;18.30;99.90;;;;;;5035561;28;20045;-64
2022/08/06 08:31:01;;;;;;;0.88;0.40;;;18.30;99.90;;;;;;5035272;28;20048;-64
2022/08/06 08:33:27;;;;;;;1.48;0.45;;;18.40;99.90;;;;;;5034944;28;20041;-63
2022/08/06 08:35:53;;;;;;;1.80;0.60;;;18.50;99.90;;;;;;5034624;28;20045;-64
2022/08/06 08:38:19;;;;;;;1.30;0.47;;;18.50;99.90;;;;;;5034629;28;20121;-65
2022/08/06 08:40:47;;;;;;;2.33;0.40;;;18.60;99.90;;;;;;5016910;28;20091;-64
2022/08/06 08:43:21;;;;;;;1.27;0.50;;;18.70;99.90;;;;;;5034769;28;20038;-64
2022/08/06 08:45:50;;;;;;;0.68;0.40;;;18.80;99.90;;;;;;5035293;28;20045;-63
2022/08/06 08:48:22;;;;;;;1.42;0.82;;;18.90;99.90;;;;;;5034311;28;20489;-63
2022/08/06 08:50:49;;;;;;;2.30;0.60;;;19.00;99.90;;;;;;5034809;28;20094;-63
2022/08/06 08:53:25;;;;;;;3.28;0.60;;;19.00;99.90;;;;;;5035408;28;20069;-63
2022/08/06 08:55:51;;;;;;;;;;;18.90;99.90;;;;;;5034980;28;20171;-64
2022/08/06 08:58:17;;;;;;;0.70;0.40;;;19.00;99.90;;;;;;5034234;28;20433;-63
2022/08/06 09:00:42;;;;;;;1.70;0.50;;;19.00;99.90;;;;;;5035264;28;20328;-64
2022/08/06 09:03:08;;;;;;;1.33;0.55;;;19.20;99.90;;;;;;5034840;28;20049;-64
2022/08/06 09:05:35;;;;;;;1.17;0.50;;;19.40;99.90;;;;;;5034386;28;20045;-64
2022/08/06 09:08:02;;;;;;;0.77;0.40;;;19.50;99.90;;;;;;5034280;28;20056;-64
2022/08/06 09:10:29;;;;;;;1.25;0.47;;;19.40;99.90;;;;;;5034219;28;20336;-64
2022/08/06 09:12:55;;;;;;;2.85;0.63;;;19.30;99.90;;;;;;5034280;28;20064;-64
2022/08/06 09:15:21;;;;;;;2.38;0.50;;;19.00;99.90;;;;;;5034172;28;20481;-64
2022/08/06 09:17:48;;;;;;;1.10;0.60;;;19.00;99.90;;;;;;5034124;28;20067;-64
2022/08/06 09:20:13;;;;;;;1.00;0.50;;;19.20;99.90;;;;;;5034701;28;20068;-64
2022/08/06 09:22:40;;;;;;;1.38;0.50;;;19.40;99.90;;;;;;5033821;28;20442;-65
2022/08/06 09:25:05;;;;;;;1.90;0.57;;;19.30;99.90;;;;;;5016224;28;20116;-64
2022/08/06 09:27:35;;;;;;;2.78;0.50;;;19.30;99.90;;;;;;5034094;28;20055;-65
2022/08/06 09:30:04;;;;;;;1.02;0.50;;;19.20;99.90;;;;;;5033778;28;20092;-65
2022/08/06 09:32:37;;;;;;;1.80;0.60;;;19.10;99.90;;;;;;5033961;28;20045;-64
2022/08/06 09:35:24;;;;;;;0.85;0.40;;;19.10;99.90;;;;;;5033745;28;20111;-65
2022/08/06 09:37:59;;;;;;;0.65;0.40;;;19.10;99.90;;;;;;5033574;28;20064;-66
2022/08/06 09:40:24;;;;;;;0.95;0.40;;;19.10;99.90;;;;;;5017011;28;20045;-64
2022/08/06 09:42:50;;;;;;;1.40;0.50;;;19.20;99.90;;;;;;5033395;28;20045;-64
2022/08/06 09:45:18;;;;;;;2.08;0.60;;;19.30;99.90;;;;;;5016300;28;20060;-63
2022/08/06 09:47:46;;;;;;;1.23;0.50;;;19.50;99.90;;;;;;5033953;28;20128;-64
2022/08/06 09:50:12;;;;;;;1.77;0.43;;;19.80;99.90;;;;;;5033408;28;20056;-66
2022/08/06 09:52:37;;;;;;;0.80;0.50;;;20.00;99.90;;;;;;5015802;28;20045;-64
2022/08/06 09:55:03;;;;;;;1.33;0.50;;;19.90;99.90;;;;;;5033912;28;20049;-65
2022/08/06 09:57:45;;;;;;;1.52;0.45;;;19.80;99.90;;;;;;5033411;28;20053;-64
2022/08/06 10:00:24;;;;;;;2.63;0.60;;;19.70;99.90;;;;;;5033887;28;20397;-65
2022/08/06 10:02:54;;;;;;;2.03;0.70;;;19.60;99.90;;;;;;5034023;28;20045;-64
2022/08/06 10:05:22;;;;;;;3.22;0.68;;;19.40;99.90;;;;;;5033901;28;20056;-64
2022/08/06 10:08:02;;;;;;;1.90;0.55;;;19.20;99.90;;;;;;5033290;28;20045;-66
2022/08/06 10:10:41;;;;;;;1.02;0.60;;;19.10;99.90;;;;;;5033888;28;20089;-64
2022/08/06 10:13:13;;;;;;;1.50;0.60;;;19.00;99.90;;;;;;5033303;28;20045;-64
2022/08/06 10:15:38;;;;;;;1.30;0.70;;;19.00;99.90;;;;;;5033162;28;20108;-66
2022/08/06 10:18:04;;;;;;;2.53;0.80;;;19.20;99.90;;;;;;5033123;28;20045;-65
2022/08/06 10:20:30;;;;;;;2.05;0.90;;;19.40;99.90;;;;;;5033088;28;20072;-64
2022/08/06 10:22:59;;;;;;;1.35;0.68;;;19.70;99.90;;;;;;5033562;28;20493;-64
2022/08/06 10:25:26;;;;;;;2.10;0.80;;;19.90;99.90;;;;;;5015271;28;20041;-64
2022/08/06 10:27:54;;;;;;;2.13;0.75;;;20.10;99.90;;;;;;5032536;28;20551;-63
2022/08/06 10:30:20;;;;;;;2.85;0.63;;;20.30;99.90;;;;;;5032653;28;20037;-65
2022/08/06 10:32:50;;;;;;;2.22;0.68;;;20.20;99.90;;;;;;5033005;28;20124;-65
2022/08/06 10:35:18;;;;;;;1.30;0.68;;;20.10;99.90;;;;;;5033812;28;20053;-65
2022/08/06 10:37:49;;;;;;;2.55;0.80;;;19.90;99.90;;;;;;5033426;28;20049;-65
2022/08/06 10:40:16;;;;;;;3.17;0.77;;;19.70;99.90;;;;;;5033545;28;20124;-65
2022/08/06 10:42:42;;;;;;;1.80;0.80;;;19.60;99.90;;;;;;5033119;28;20053;-65
2022/08/06 10:45:10;;;;;;;2.03;0.80;;;19.50;99.90;;;;;;5032788;28;20064;-65
2022/08/06 10:47:36;;;;;;;1.80;0.95;;;19.40;99.90;;;;;;5032901;28;20049;-65
2022/08/06 10:50:03;;;;;;;1.73;0.77;;;19.30;99.90;;;;;;5034852;28;20363;-65
2022/08/06 10:52:29;;;;;;;2.00;0.80;;;19.30;99.90;;;;;;5036800;28;20103;-65
2022/08/06 10:54:56;;;;;;;2.55;0.70;;;19.30;99.90;;;;;;5037324;28;20045;-64
2022/08/06 10:57:22;;;;;;;2.10;0.80;;;19.40;99.90;;;;;;5037213;28;20057;-64
2022/08/06 10:59:48;;;;;;;1.77;0.73;;;19.70;99.90;;;;;;5036714;28;20058;-65
2022/08/06 11:02:32;;;;;;;1.90;0.80;;;19.90;99.90;;;;;;5036529;28;20045;-65
2022/08/06 11:05:00;;;;;;;1.42;0.60;;;20.10;99.90;;;;;;5019409;28;20103;-65
2022/08/06 11:08:07;;;;;;;1.35;0.68;;;20.10;99.90;;;;;;5036567;28;20103;-65
2022/08/06 11:11:05;;;;;;;2.03;0.90;;;20.10;99.90;;;;;;5018861;28;20188;-65
2022/08/06 11:13:50;;;;;;;1.70;0.80;;;20.00;99.90;;;;;;5021183;28;20057;-66
2022/08/06 11:16:28;;;;;;;1.85;0.60;;;20.00;99.90;;;;;;5036397;28;20106;-66
2022/08/06 11:18:57;;;;;;;1.52;0.73;;;19.90;99.90;;;;;;5018581;28;20168;-66
2022/08/06 11:21:45;;;;;;;3.72;1.10;;;19.90;99.90;;;;;;5018476;28;20061;-66
2022/08/06 11:24:13;;;;;;;2.33;0.90;;;19.80;99.90;;;;;;5036372;28;20373;-66
2022/08/06 11:26:42;;;;;;;1.65;0.90;;;19.80;99.90;;;;;;5036330;28;20045;-65
2022/08/06 11:29:09;;;;;;;1.75;0.90;;;19.70;99.90;;;;;;5035950;28;20052;-66
2022/08/06 11:31:40;;;;;;;2.10;0.90;;;19.60;99.90;;;;;;5035770;28;20041;-65
2022/08/06 11:34:10;;;;;;;2.75;1.02;;;19.60;99.90;;;;;;5018543;28;20120;-65
2022/08/06 11:36:51;;;;;;;1.98;0.85;;;19.70;99.90;;;;;;5019020;28;20489;-65
2022/08/06 11:39:20;;;;;;;1.95;0.90;;;19.80;99.90;;;;;;5035823;28;20131;-65
2022/08/06 11:42:01;;;;;;;2.50;0.85;;;20.00;99.90;;;;;;5035755;28;20173;-65
2022/08/06 11:44:37;;;;;;;3.05;0.70;;;20.20;99.90;;;;;;5018876;28;20060;-65
2022/08/06 11:47:07;;;;;;;;;;;20.40;99.90;;;;;;5036118;28;20052;-65
2022/08/06 11:49:36;;;;;;;1.92;0.90;;;20.40;99.90;;;;;;5035585;28;19928;-67
2022/08/06 11:52:01;;;;;;;1.50;0.80;;;20.20;99.90;;;;;;5035480;28;20045;-65
2022/08/06 11:54:36;;;;;;;2.08;0.90;;;20.10;99.90;;;;;;5035571;28;20041;-65
2022/08/06 11:57:02;;;;;;;1.50;0.80;;;20.10;99.90;;;;;;5035960;28;20056;-65
2022/08/06 11:59:34;;;;;;;1.60;0.90;;;20.00;99.90;;;;;;5035629;28;20483;-65
2022/08/06 12:02:03;;;;;;;1.60;0.70;;;20.00;99.90;;;;;;5017162;28;20405;-65
2022/08/06 12:04:34;;;;;;;2.92;0.80;;;19.90;99.90;;;;;;5035611;28;20081;-65
2022/08/06 12:07:19;;;;;;;1.90;0.73;;;19.90;99.90;;;;;;5035434;28;20458;-64
2022/08/06 12:09:46;;;;;;;2.05;0.93;;;19.90;99.90;;;;;;5035640;28;20041;-65
2022/08/06 12:12:23;;;;;;;1.83;0.73;;;19.90;99.90;;;;;;5035344;28;20045;-65
2022/08/06 12:14:50;;;;;;;2.22;1.00;;;19.90;99.90;;;;;;5035553;28;20042;-65
2022/08/06 12:17:20;;;;;;;2.08;0.82;;;20.00;99.90;;;;;;5017569;28;20041;-64
2022/08/06 12:19:52;;;;;;;1.77;0.88;;;20.00;99.90;;;;;;5035227;28;20135;-65
2022/08/06 12:22:20;;;;;;;2.05;0.80;;;20.00;99.90;;;;;;5035772;28;20406;-64
2022/08/06 12:24:49;;;;;;;1.65;0.88;;;20.10;99.90;;;;;;5035130;28;20051;-65
2022/08/06 12:27:15;;;;;;;1.88;1.10;;;20.10;99.90;;;;;;5035528;28;20421;-65
2022/08/06 12:29:43;;;;;;;1.13;0.60;;;20.10;99.90;;;;;;5034986;28;20505;-65
2022/08/06 12:32:29;;;;;;;2.22;0.80;;;20.20;99.90;;;;;;5034940;28;20045;-65
2022/08/06 12:34:56;;;;;;;;;;;20.40;99.90;;;;;;5035521;28;20380;-65
2022/08/06 12:37:36;;;;;;;1.70;0.90;;;20.50;99.90;;;;;;5034866;28;20365;-64
2022/08/06 12:40:26;;;;;;;1.50;0.85;;;20.70;99.90;;;;;;5035441;28;20052;-64
2022/08/06 12:42:54;;;;;;;1.67;0.90;;;20.90;99.90;;;;;;5034734;28;20041;-65
2022/08/06 12:45:23;;;;;;;2.53;0.93;;;21.00;99.90;;;;;;5034721;28;20046;-64
2022/08/06 12:48:08;;;;;;;1.60;0.70;;;21.10;99.90;;;;;;5034736;28;20049;-65
2022/08/06 12:50:36;;;;;;;1.90;0.82;;;21.20;99.90;;;;;;5034677;28;20049;-65
2022/08/06 12:53:13;;;;;;;2.15;0.80;;;21.20;99.90;;;;;;5034829;28;20049;-64
2022/08/06 12:55:44;;;;;;;1.75;0.73;;;21.30;99.90;;;;;;5035123;28;20091;-65
2022/08/06 12:58:11;;;;;;;1.42;0.85;;;21.30;99.90;;;;;;5034486;28;20064;-64
2022/08/06 13:00:38;;;;;;;2.78;0.80;;;21.40;99.90;;;;;;5034523;28;20132;-63
2022/08/06 13:03:05;;;;;;;2.45;0.90;;;21.60;99.90;;;;;;5034333;28;20061;-64
2022/08/06 13:05:32;;;;;;;1.98;0.90;;;21.60;99.90;;;;;;5034589;28;20099;-64
2022/08/06 13:07:58;;;;;;;2.38;0.90;;;21.60;99.90;;;;;;5035109;28;20085;-67
2022/08/06 13:10:24;;;;;;;2.30;0.80;;;21.60;99.90;;;;;;5033912;28;20041;-64